sensor_id;sensor_type;location;lat;lon;timestamp;P1;durP1;ratioP1;P2;durP2;ratioP2
80423;SDS011;69765;47.668;19.326;2023-05-10T00:01:37;5.38;;;2.67;;
80423;SDS011;69765;47.668;19.326;2023-05-10T00:04:39;5.03;;;2.75;;
80423;SDS011;69765;47.668;19.326;2023-05-10T00:07:42;6.40;;;2.95;;
80423;SDS011;69765;47.668;19.326;2023-05-10T00:10:46;3.70;;;2.47;;
80423;SDS011;69765;47.668;19.326;2023-05-10T00:13:49;5.80;;;2.92;;
80423;SDS011;69765;47.668;19.326;2023-05-10T00:16:51;5.65;;;2.92;;
80423;SDS011;69765;47.668;19.326;2023-05-10T00:19:54;5.32;;;3.25;;
80423;SDS011;69765;47.668;19.326;2023-05-10T00:22:56;5.05;;;2.70;;
80423;SDS011;69765;47.668;19.326;2023-05-10T00:25:58;5.32;;;2.65;;
80423;SDS011;69765;47.668;19.326;2023-05-10T00:29:01;4.57;;;2.78;;
80423;SDS011;69765;47.668;19.326;2023-05-10T00:32:03;7.03;;;3.20;;
80423;SDS011;69765;47.668;19.326;2023-05-10T00:35:06;4.57;;;2.90;;
80423;SDS011;69765;47.668;19.326;2023-05-10T00:38:08;4.65;;;3.20;;
80423;SDS011;69765;47.668;19.326;2023-05-10T00:41:11;4.82;;;3.25;;
80423;SDS011;69765;47.668;19.326;2023-05-10T00:44:14;4.30;;;2.75;;
80423;SDS011;69765;47.668;19.326;2023-05-10T00:47:17;4.13;;;2.83;;
80423;SDS011;69765;47.668;19.326;2023-05-10T00:50:19;5.53;;;2.95;;
80423;SDS011;69765;47.668;19.326;2023-05-10T00:53:21;4.60;;;2.92;;
80423;SDS011;69765;47.668;19.326;2023-05-10T00:56:24;5.05;;;2.72;;
80423;SDS011;69765;47.668;19.326;2023-05-10T00:59:27;6.63;;;3.00;;
80423;SDS011;69765;47.668;19.326;2023-05-10T01:02:30;4.80;;;3.20;;
80423;SDS011;69765;47.668;19.326;2023-05-10T01:05:33;5.22;;;2.75;;
80423;SDS011;69765;47.668;19.326;2023-05-10T01:08:35;8.63;;;5.88;;
80423;SDS011;69765;47.668;19.326;2023-05-10T01:11:38;5.35;;;3.33;;
80423;SDS011;69765;47.668;19.326;2023-05-10T01:14:41;4.35;;;3.22;;
80423;SDS011;69765;47.668;19.326;2023-05-10T01:17:45;5.15;;;2.80;;
80423;SDS011;69765;47.668;19.326;2023-05-10T01:20:52;5.47;;;3.33;;
80423;SDS011;69765;47.668;19.326;2023-05-10T01:34:40;5.90;;;3.22;;
80423;SDS011;69765;47.668;19.326;2023-05-10T01:38:09;4.35;;;2.70;;
80423;SDS011;69765;47.668;19.326;2023-05-10T01:48:10;6.00;;;3.28;;
80423;SDS011;69765;47.668;19.326;2023-05-10T01:51:14;6.28;;;3.45;;
80423;SDS011;69765;47.668;19.326;2023-05-10T01:54:21;5.25;;;2.90;;
80423;SDS011;69765;47.668;19.326;2023-05-10T01:57:25;5.05;;;3.55;;
80423;SDS011;69765;47.668;19.326;2023-05-10T02:00:30;4.97;;;3.33;;
80423;SDS011;69765;47.668;19.326;2023-05-10T02:03:35;5.82;;;3.35;;
80423;SDS011;69765;47.668;19.326;2023-05-10T02:06:40;6.55;;;3.65;;
80423;SDS011;69765;47.668;19.326;2023-05-10T02:09:44;4.45;;;3.20;;
80423;SDS011;69765;47.668;19.326;2023-05-10T02:12:51;6.13;;;3.63;;
80423;SDS011;69765;47.668;19.326;2023-05-10T02:15:57;5.20;;;3.58;;
80423;SDS011;69765;47.668;19.326;2023-05-10T02:19:01;6.72;;;3.75;;
80423;SDS011;69765;47.668;19.326;2023-05-10T02:22:04;5.38;;;3.50;;
80423;SDS011;69765;47.668;19.326;2023-05-10T02:25:08;5.00;;;3.47;;
80423;SDS011;69765;47.668;19.326;2023-05-10T02:28:11;6.13;;;3.03;;
80423;SDS011;69765;47.668;19.326;2023-05-10T02:31:14;5.07;;;3.33;;
80423;SDS011;69765;47.668;19.326;2023-05-10T02:34:17;4.35;;;2.85;;
80423;SDS011;69765;47.668;19.326;2023-05-10T02:37:20;7.03;;;3.67;;
80423;SDS011;69765;47.668;19.326;2023-05-10T02:40:23;5.88;;;3.53;;
80423;SDS011;69765;47.668;19.326;2023-05-10T02:43:31;6.55;;;3.53;;
80423;SDS011;69765;47.668;19.326;2023-05-10T02:46:35;5.20;;;3.50;;
80423;SDS011;69765;47.668;19.326;2023-05-10T02:49:39;7.13;;;3.40;;
80423;SDS011;69765;47.668;19.326;2023-05-10T02:52:44;6.05;;;3.90;;
80423;SDS011;69765;47.668;19.326;2023-05-10T02:55:50;6.70;;;3.58;;
80423;SDS011;69765;47.668;19.326;2023-05-10T02:58:54;6.82;;;4.03;;
80423;SDS011;69765;47.668;19.326;2023-05-10T03:01:57;6.55;;;4.05;;
80423;SDS011;69765;47.668;19.326;2023-05-10T03:05:01;7.72;;;4.22;;
80423;SDS011;69765;47.668;19.326;2023-05-10T03:08:05;6.13;;;4.00;;
80423;SDS011;69765;47.668;19.326;2023-05-10T03:11:29;9.00;;;5.07;;
80423;SDS011;69765;47.668;19.326;2023-05-10T03:18:12;7.05;;;4.05;;
80423;SDS011;69765;47.668;19.326;2023-05-10T03:21:30;6.90;;;3.85;;
80423;SDS011;69765;47.668;19.326;2023-05-10T03:24:34;5.50;;;3.67;;
80423;SDS011;69765;47.668;19.326;2023-05-10T03:27:39;6.55;;;4.32;;
80423;SDS011;69765;47.668;19.326;2023-05-10T03:30:44;5.97;;;4.32;;
80423;SDS011;69765;47.668;19.326;2023-05-10T03:33:48;7.85;;;4.63;;
80423;SDS011;69765;47.668;19.326;2023-05-10T03:36:56;6.80;;;4.50;;
80423;SDS011;69765;47.668;19.326;2023-05-10T03:40:02;7.75;;;4.68;;
80423;SDS011;69765;47.668;19.326;2023-05-10T03:43:08;7.82;;;4.55;;
80423;SDS011;69765;47.668;19.326;2023-05-10T03:46:11;7.63;;;4.07;;
80423;SDS011;69765;47.668;19.326;2023-05-10T03:49:13;8.95;;;4.55;;
80423;SDS011;69765;47.668;19.326;2023-05-10T03:52:16;7.00;;;3.80;;
80423;SDS011;69765;47.668;19.326;2023-05-10T03:55:20;5.10;;;3.85;;
80423;SDS011;69765;47.668;19.326;2023-05-10T03:58:22;8.13;;;4.20;;
80423;SDS011;69765;47.668;19.326;2023-05-10T04:01:25;7.85;;;4.22;;
80423;SDS011;69765;47.668;19.326;2023-05-10T04:04:27;6.90;;;4.53;;
80423;SDS011;69765;47.668;19.326;2023-05-10T04:07:30;6.10;;;4.50;;
80423;SDS011;69765;47.668;19.326;2023-05-10T04:10:32;6.32;;;4.28;;
80423;SDS011;69765;47.668;19.326;2023-05-10T04:13:35;6.88;;;3.95;;
80423;SDS011;69765;47.668;19.326;2023-05-10T04:16:37;6.82;;;4.28;;
80423;SDS011;69765;47.668;19.326;2023-05-10T04:19:40;5.97;;;4.13;;
80423;SDS011;69765;47.668;19.326;2023-05-10T04:22:42;5.78;;;3.78;;
80423;SDS011;69765;47.668;19.326;2023-05-10T04:25:45;6.78;;;4.07;;
80423;SDS011;69765;47.668;19.326;2023-05-10T04:28:47;6.60;;;4.35;;
80423;SDS011;69765;47.668;19.326;2023-05-10T04:31:49;7.10;;;3.70;;
80423;SDS011;69765;47.668;19.326;2023-05-10T04:34:52;5.43;;;3.67;;
80423;SDS011;69765;47.668;19.326;2023-05-10T04:37:55;6.55;;;4.20;;
80423;SDS011;69765;47.668;19.326;2023-05-10T04:41:07;6.70;;;4.85;;
80423;SDS011;69765;47.668;19.326;2023-05-10T04:44:11;4.75;;;3.17;;
80423;SDS011;69765;47.668;19.326;2023-05-10T04:47:13;6.82;;;3.97;;
80423;SDS011;69765;47.668;19.326;2023-05-10T04:50:16;6.82;;;3.75;;
80423;SDS011;69765;47.668;19.326;2023-05-10T04:53:18;5.93;;;3.78;;
80423;SDS011;69765;47.668;19.326;2023-05-10T04:56:21;6.68;;;3.58;;
80423;SDS011;69765;47.668;19.326;2023-05-10T04:59:24;6.75;;;4.20;;
80423;SDS011;69765;47.668;19.326;2023-05-10T05:02:26;6.88;;;3.88;;
80423;SDS011;69765;47.668;19.326;2023-05-10T05:05:29;6.97;;;3.83;;
80423;SDS011;69765;47.668;19.326;2023-05-10T05:08:31;6.43;;;4.22;;
80423;SDS011;69765;47.668;19.326;2023-05-10T05:11:33;5.38;;;4.40;;
80423;SDS011;69765;47.668;19.326;2023-05-10T05:14:36;5.97;;;4.05;;
80423;SDS011;69765;47.668;19.326;2023-05-10T05:17:38;6.28;;;4.10;;
80423;SDS011;69765;47.668;19.326;2023-05-10T05:20:41;8.75;;;3.60;;
80423;SDS011;69765;47.668;19.326;2023-05-10T05:23:43;5.55;;;3.90;;
80423;SDS011;69765;47.668;19.326;2023-05-10T05:26:45;5.18;;;3.55;;
80423;SDS011;69765;47.668;19.326;2023-05-10T05:29:48;6.45;;;4.20;;
80423;SDS011;69765;47.668;19.326;2023-05-10T05:32:50;8.48;;;4.35;;
80423;SDS011;69765;47.668;19.326;2023-05-10T05:35:53;5.95;;;4.45;;
80423;SDS011;69765;47.668;19.326;2023-05-10T05:38:55;7.80;;;4.43;;
80423;SDS011;69765;47.668;19.326;2023-05-10T05:41:58;6.75;;;4.78;;
80423;SDS011;69765;47.668;19.326;2023-05-10T05:45:00;6.03;;;4.05;;
80423;SDS011;69765;47.668;19.326;2023-05-10T05:48:03;6.45;;;3.90;;
80423;SDS011;69765;47.668;19.326;2023-05-10T05:51:06;6.80;;;4.60;;
80423;SDS011;69765;47.668;19.326;2023-05-10T05:54:08;6.20;;;4.10;;
80423;SDS011;69765;47.668;19.326;2023-05-10T05:57:11;6.00;;;4.72;;
80423;SDS011;69765;47.668;19.326;2023-05-10T06:00:13;6.32;;;3.60;;
80423;SDS011;69765;47.668;19.326;2023-05-10T06:03:16;5.85;;;4.30;;
80423;SDS011;69765;47.668;19.326;2023-05-10T06:06:18;6.85;;;3.75;;
80423;SDS011;69765;47.668;19.326;2023-05-10T06:09:21;4.75;;;3.58;;
80423;SDS011;69765;47.668;19.326;2023-05-10T06:12:25;6.18;;;4.43;;
80423;SDS011;69765;47.668;19.326;2023-05-10T06:15:28;5.45;;;4.45;;
80423;SDS011;69765;47.668;19.326;2023-05-10T06:18:30;4.63;;;3.20;;
80423;SDS011;69765;47.668;19.326;2023-05-10T06:21:32;7.45;;;4.13;;
80423;SDS011;69765;47.668;19.326;2023-05-10T06:24:35;4.40;;;3.10;;
80423;SDS011;69765;47.668;19.326;2023-05-10T06:27:37;5.32;;;3.53;;
80423;SDS011;69765;47.668;19.326;2023-05-10T06:30:40;5.90;;;3.90;;
80423;SDS011;69765;47.668;19.326;2023-05-10T06:33:42;6.68;;;3.28;;
80423;SDS011;69765;47.668;19.326;2023-05-10T06:36:44;6.07;;;3.75;;
80423;SDS011;69765;47.668;19.326;2023-05-10T06:39:47;4.63;;;3.33;;
80423;SDS011;69765;47.668;19.326;2023-05-10T06:42:50;5.20;;;3.45;;
80423;SDS011;69765;47.668;19.326;2023-05-10T06:45:53;4.03;;;3.03;;
80423;SDS011;69765;47.668;19.326;2023-05-10T06:48:55;6.10;;;3.13;;
80423;SDS011;69765;47.668;19.326;2023-05-10T06:51:57;4.03;;;2.88;;
80423;SDS011;69765;47.668;19.326;2023-05-10T06:55:00;4.47;;;3.67;;
80423;SDS011;69765;47.668;19.326;2023-05-10T06:58:02;5.63;;;3.25;;
80423;SDS011;69765;47.668;19.326;2023-05-10T07:01:05;5.57;;;3.47;;
80423;SDS011;69765;47.668;19.326;2023-05-10T07:04:08;5.40;;;3.65;;
80423;SDS011;69765;47.668;19.326;2023-05-10T07:07:10;5.60;;;3.15;;
80423;SDS011;69765;47.668;19.326;2023-05-10T07:10:12;4.93;;;3.67;;
80423;SDS011;69765;47.668;19.326;2023-05-10T07:13:15;5.40;;;3.08;;
80423;SDS011;69765;47.668;19.326;2023-05-10T07:16:18;4.60;;;3.65;;
80423;SDS011;69765;47.668;19.326;2023-05-10T07:19:20;5.93;;;3.67;;
80423;SDS011;69765;47.668;19.326;2023-05-10T07:22:33;3.47;;;2.72;;
80423;SDS011;69765;47.668;19.326;2023-05-10T07:25:35;5.60;;;3.38;;
80423;SDS011;69765;47.668;19.326;2023-05-10T07:28:38;5.32;;;3.50;;
80423;SDS011;69765;47.668;19.326;2023-05-10T07:31:41;5.30;;;3.60;;
80423;SDS011;69765;47.668;19.326;2023-05-10T07:34:44;6.80;;;4.05;;
80423;SDS011;69765;47.668;19.326;2023-05-10T07:37:47;6.28;;;3.70;;
80423;SDS011;69765;47.668;19.326;2023-05-10T07:40:49;5.78;;;4.28;;
80423;SDS011;69765;47.668;19.326;2023-05-10T07:43:51;5.85;;;3.28;;
80423;SDS011;69765;47.668;19.326;2023-05-10T07:46:54;4.97;;;4.28;;
80423;SDS011;69765;47.668;19.326;2023-05-10T07:49:57;4.55;;;3.50;;
80423;SDS011;69765;47.668;19.326;2023-05-10T07:52:59;5.90;;;3.95;;
80423;SDS011;69765;47.668;19.326;2023-05-10T07:59:34;6.03;;;4.03;;
80423;SDS011;69765;47.668;19.326;2023-05-10T08:02:36;5.70;;;3.83;;
80423;SDS011;69765;47.668;19.326;2023-05-10T08:05:39;4.50;;;3.65;;
80423;SDS011;69765;47.668;19.326;2023-05-10T08:08:42;7.82;;;4.28;;
80423;SDS011;69765;47.668;19.326;2023-05-10T08:11:44;6.70;;;3.60;;
80423;SDS011;69765;47.668;19.326;2023-05-10T08:14:47;5.40;;;4.05;;
80423;SDS011;69765;47.668;19.326;2023-05-10T08:17:49;6.35;;;4.38;;
80423;SDS011;69765;47.668;19.326;2023-05-10T08:20:52;5.90;;;3.67;;
80423;SDS011;69765;47.668;19.326;2023-05-10T08:23:54;6.07;;;3.65;;
80423;SDS011;69765;47.668;19.326;2023-05-10T08:27:00;5.40;;;3.35;;
80423;SDS011;69765;47.668;19.326;2023-05-10T08:30:03;6.40;;;3.88;;
80423;SDS011;69765;47.668;19.326;2023-05-10T08:33:05;5.68;;;3.15;;
80423;SDS011;69765;47.668;19.326;2023-05-10T08:36:08;4.22;;;3.55;;
80423;SDS011;69765;47.668;19.326;2023-05-10T08:39:10;5.18;;;3.38;;
80423;SDS011;69765;47.668;19.326;2023-05-10T08:42:28;4.80;;;3.20;;
80423;SDS011;69765;47.668;19.326;2023-05-10T08:45:33;4.38;;;3.28;;
80423;SDS011;69765;47.668;19.326;2023-05-10T08:48:42;5.88;;;3.35;;
80423;SDS011;69765;47.668;19.326;2023-05-10T08:51:50;4.32;;;3.30;;
80423;SDS011;69765;47.668;19.326;2023-05-10T08:54:56;3.42;;;2.75;;
80423;SDS011;69765;47.668;19.326;2023-05-10T08:57:59;4.00;;;2.70;;
80423;SDS011;69765;47.668;19.326;2023-05-10T09:01:02;4.55;;;2.90;;
80423;SDS011;69765;47.668;19.326;2023-05-10T09:04:05;3.55;;;2.70;;
80423;SDS011;69765;47.668;19.326;2023-05-10T09:07:08;4.35;;;3.10;;
80423;SDS011;69765;47.668;19.326;2023-05-10T09:10:11;5.13;;;3.42;;
80423;SDS011;69765;47.668;19.326;2023-05-10T09:13:14;4.10;;;3.10;;
80423;SDS011;69765;47.668;19.326;2023-05-10T09:16:19;6.28;;;3.50;;
80423;SDS011;69765;47.668;19.326;2023-05-10T09:19:23;3.53;;;2.65;;
80423;SDS011;69765;47.668;19.326;2023-05-10T09:22:26;4.22;;;2.83;;
80423;SDS011;69765;47.668;19.326;2023-05-10T09:25:29;4.07;;;3.25;;
80423;SDS011;69765;47.668;19.326;2023-05-10T09:28:32;4.78;;;2.88;;
80423;SDS011;69765;47.668;19.326;2023-05-10T09:31:52;3.80;;;2.75;;
80423;SDS011;69765;47.668;19.326;2023-05-10T09:34:56;3.55;;;2.72;;
80423;SDS011;69765;47.668;19.326;2023-05-10T09:38:00;4.80;;;2.78;;
80423;SDS011;69765;47.668;19.326;2023-05-10T09:41:14;3.97;;;2.83;;
80423;SDS011;69765;47.668;19.326;2023-05-10T09:47:21;3.38;;;2.40;;
80423;SDS011;69765;47.668;19.326;2023-05-10T09:50:24;5.18;;;2.72;;
80423;SDS011;69765;47.668;19.326;2023-05-10T09:53:27;6.38;;;3.63;;
80423;SDS011;69765;47.668;19.326;2023-05-10T09:56:33;4.18;;;3.00;;
80423;SDS011;69765;47.668;19.326;2023-05-10T09:59:42;4.53;;;3.28;;
80423;SDS011;69765;47.668;19.326;2023-05-10T10:02:53;4.10;;;2.72;;
80423;SDS011;69765;47.668;19.326;2023-05-10T10:05:57;4.78;;;2.53;;
80423;SDS011;69765;47.668;19.326;2023-05-10T10:08:59;6.28;;;2.92;;
80423;SDS011;69765;47.668;19.326;2023-05-10T10:12:02;5.40;;;3.35;;
80423;SDS011;69765;47.668;19.326;2023-05-10T10:15:05;3.80;;;3.15;;
80423;SDS011;69765;47.668;19.326;2023-05-10T10:18:12;3.47;;;2.63;;
80423;SDS011;69765;47.668;19.326;2023-05-10T10:24:19;5.18;;;3.20;;
80423;SDS011;69765;47.668;19.326;2023-05-10T10:27:23;3.25;;;2.60;;
80423;SDS011;69765;47.668;19.326;2023-05-10T10:30:43;3.72;;;2.70;;
80423;SDS011;69765;47.668;19.326;2023-05-10T10:37:04;4.07;;;2.72;;
80423;SDS011;69765;47.668;19.326;2023-05-10T10:43:45;3.03;;;2.35;;
80423;SDS011;69765;47.668;19.326;2023-05-10T10:50:04;3.78;;;2.40;;
80423;SDS011;69765;47.668;19.326;2023-05-10T10:53:10;2.92;;;2.47;;
80423;SDS011;69765;47.668;19.326;2023-05-10T10:56:13;2.95;;;2.20;;
80423;SDS011;69765;47.668;19.326;2023-05-10T10:59:26;4.38;;;2.53;;
80423;SDS011;69765;47.668;19.326;2023-05-10T11:02:34;2.75;;;1.77;;
80423;SDS011;69765;47.668;19.326;2023-05-10T11:05:48;3.33;;;1.90;;
80423;SDS011;69765;47.668;19.326;2023-05-10T11:08:51;2.97;;;2.00;;
80423;SDS011;69765;47.668;19.326;2023-05-10T11:11:54;3.75;;;2.40;;
80423;SDS011;69765;47.668;19.326;2023-05-10T11:14:57;2.47;;;1.85;;
80423;SDS011;69765;47.668;19.326;2023-05-10T11:18:00;3.38;;;2.03;;
80423;SDS011;69765;47.668;19.326;2023-05-10T11:21:51;4.57;;;2.10;;
80423;SDS011;69765;47.668;19.326;2023-05-10T11:25:14;3.75;;;1.83;;
80423;SDS011;69765;47.668;19.326;2023-05-10T11:28:17;2.88;;;1.98;;
80423;SDS011;69765;47.668;19.326;2023-05-10T11:31:21;2.90;;;1.98;;
80423;SDS011;69765;47.668;19.326;2023-05-10T11:37:38;4.45;;;2.22;;
80423;SDS011;69765;47.668;19.326;2023-05-10T11:40:43;3.00;;;2.20;;
80423;SDS011;69765;47.668;19.326;2023-05-10T11:43:45;3.38;;;1.77;;
80423;SDS011;69765;47.668;19.326;2023-05-10T11:46:49;4.13;;;2.38;;
80423;SDS011;69765;47.668;19.326;2023-05-10T11:49:52;3.67;;;1.95;;
80423;SDS011;69765;47.668;19.326;2023-05-10T11:52:55;3.03;;;2.00;;
80423;SDS011;69765;47.668;19.326;2023-05-10T11:56:08;4.30;;;1.75;;
80423;SDS011;69765;47.668;19.326;2023-05-10T11:59:13;3.22;;;2.30;;
80423;SDS011;69765;47.668;19.326;2023-05-10T12:02:16;3.75;;;2.47;;
80423;SDS011;69765;47.668;19.326;2023-05-10T12:05:19;2.75;;;1.90;;
80423;SDS011;69765;47.668;19.326;2023-05-10T12:08:22;3.63;;;2.60;;
80423;SDS011;69765;47.668;19.326;2023-05-10T12:11:27;3.17;;;2.00;;
80423;SDS011;69765;47.668;19.326;2023-05-10T12:14:33;4.13;;;1.70;;
80423;SDS011;69765;47.668;19.326;2023-05-10T12:17:37;4.05;;;2.05;;
80423;SDS011;69765;47.668;19.326;2023-05-10T12:20:44;3.40;;;2.35;;
80423;SDS011;69765;47.668;19.326;2023-05-10T12:23:46;3.33;;;2.05;;
80423;SDS011;69765;47.668;19.326;2023-05-10T12:26:50;2.75;;;1.83;;
80423;SDS011;69765;47.668;19.326;2023-05-10T12:29:52;5.05;;;1.88;;
80423;SDS011;69765;47.668;19.326;2023-05-10T12:33:00;3.53;;;1.85;;
80423;SDS011;69765;47.668;19.326;2023-05-10T12:36:13;2.65;;;1.73;;
80423;SDS011;69765;47.668;19.326;2023-05-10T12:39:17;3.30;;;2.03;;
80423;SDS011;69765;47.668;19.326;2023-05-10T12:42:19;3.42;;;1.80;;
80423;SDS011;69765;47.668;19.326;2023-05-10T12:45:22;2.22;;;1.50;;
80423;SDS011;69765;47.668;19.326;2023-05-10T12:48:25;3.17;;;2.05;;
80423;SDS011;69765;47.668;19.326;2023-05-10T12:51:27;2.42;;;1.60;;
80423;SDS011;69765;47.668;19.326;2023-05-10T12:54:29;2.90;;;1.75;;
80423;SDS011;69765;47.668;19.326;2023-05-10T12:57:32;2.78;;;1.80;;
80423;SDS011;69765;47.668;19.326;2023-05-10T13:00:35;3.38;;;2.10;;
80423;SDS011;69765;47.668;19.326;2023-05-10T13:03:39;4.57;;;2.10;;
80423;SDS011;69765;47.668;19.326;2023-05-10T13:06:42;4.53;;;1.98;;
80423;SDS011;69765;47.668;19.326;2023-05-10T13:09:44;4.25;;;2.00;;
80423;SDS011;69765;47.668;19.326;2023-05-10T13:12:46;2.67;;;1.80;;
80423;SDS011;69765;47.668;19.326;2023-05-10T13:15:49;3.55;;;2.38;;
80423;SDS011;69765;47.668;19.326;2023-05-10T13:18:51;2.63;;;1.90;;
80423;SDS011;69765;47.668;19.326;2023-05-10T13:21:54;4.22;;;1.92;;
80423;SDS011;69765;47.668;19.326;2023-05-10T13:24:56;6.32;;;3.97;;
80423;SDS011;69765;47.668;19.326;2023-05-10T13:27:58;3.20;;;1.98;;
80423;SDS011;69765;47.668;19.326;2023-05-10T13:31:01;3.65;;;1.85;;
80423;SDS011;69765;47.668;19.326;2023-05-10T13:34:03;3.47;;;2.10;;
80423;SDS011;69765;47.668;19.326;2023-05-10T13:37:07;3.28;;;1.70;;
80423;SDS011;69765;47.668;19.326;2023-05-10T13:40:09;5.78;;;1.67;;
80423;SDS011;69765;47.668;19.326;2023-05-10T13:43:12;2.22;;;1.50;;
80423;SDS011;69765;47.668;19.326;2023-05-10T13:46:14;3.20;;;1.70;;
80423;SDS011;69765;47.668;19.326;2023-05-10T13:49:17;2.42;;;1.40;;
80423;SDS011;69765;47.668;19.326;2023-05-10T13:52:19;2.55;;;1.60;;
80423;SDS011;69765;47.668;19.326;2023-05-10T13:55:21;2.25;;;1.45;;
80423;SDS011;69765;47.668;19.326;2023-05-10T13:58:24;2.97;;;1.10;;
80423;SDS011;69765;47.668;19.326;2023-05-10T14:01:26;3.47;;;1.50;;
80423;SDS011;69765;47.668;19.326;2023-05-10T14:04:29;5.65;;;2.05;;
80423;SDS011;69765;47.668;19.326;2023-05-10T14:07:32;4.18;;;1.67;;
80423;SDS011;69765;47.668;19.326;2023-05-10T14:10:34;1.70;;;1.23;;
80423;SDS011;69765;47.668;19.326;2023-05-10T14:13:36;2.45;;;1.60;;
80423;SDS011;69765;47.668;19.326;2023-05-10T14:16:42;2.53;;;1.70;;
80423;SDS011;69765;47.668;19.326;2023-05-10T14:19:46;2.92;;;1.80;;
80423;SDS011;69765;47.668;19.326;2023-05-10T14:22:48;3.20;;;1.52;;
80423;SDS011;69765;47.668;19.326;2023-05-10T14:25:51;3.65;;;1.50;;
80423;SDS011;69765;47.668;19.326;2023-05-10T14:28:54;3.33;;;1.45;;
80423;SDS011;69765;47.668;19.326;2023-05-10T14:31:56;2.60;;;1.85;;
80423;SDS011;69765;47.668;19.326;2023-05-10T14:34:59;2.53;;;1.55;;
80423;SDS011;69765;47.668;19.326;2023-05-10T14:38:02;3.10;;;2.20;;
80423;SDS011;69765;47.668;19.326;2023-05-10T14:41:05;2.58;;;1.88;;
80423;SDS011;69765;47.668;19.326;2023-05-10T14:44:09;2.78;;;1.75;;
80423;SDS011;69765;47.668;19.326;2023-05-10T14:47:12;3.35;;;2.08;;
80423;SDS011;69765;47.668;19.326;2023-05-10T14:50:14;2.50;;;1.80;;
80423;SDS011;69765;47.668;19.326;2023-05-10T14:53:35;4.43;;;1.75;;
80423;SDS011;69765;47.668;19.326;2023-05-10T14:56:38;2.50;;;1.70;;
80423;SDS011;69765;47.668;19.326;2023-05-10T14:59:40;3.10;;;1.67;;
80423;SDS011;69765;47.668;19.326;2023-05-10T15:02:43;3.13;;;1.83;;
80423;SDS011;69765;47.668;19.326;2023-05-10T15:05:46;2.35;;;1.63;;
80423;SDS011;69765;47.668;19.326;2023-05-10T15:08:48;3.47;;;1.98;;
80423;SDS011;69765;47.668;19.326;2023-05-10T15:11:50;2.67;;;1.45;;
80423;SDS011;69765;47.668;19.326;2023-05-10T15:14:53;2.85;;;1.60;;
80423;SDS011;69765;47.668;19.326;2023-05-10T15:17:55;2.58;;;1.75;;
80423;SDS011;69765;47.668;19.326;2023-05-10T15:20:58;3.00;;;1.75;;
80423;SDS011;69765;47.668;19.326;2023-05-10T15:24:00;4.00;;;1.85;;
80423;SDS011;69765;47.668;19.326;2023-05-10T15:27:02;2.85;;;1.80;;
80423;SDS011;69765;47.668;19.326;2023-05-10T15:30:05;3.83;;;1.95;;
80423;SDS011;69765;47.668;19.326;2023-05-10T15:33:08;2.67;;;1.70;;
80423;SDS011;69765;47.668;19.326;2023-05-10T15:36:10;3.55;;;1.70;;
80423;SDS011;69765;47.668;19.326;2023-05-10T15:39:13;4.35;;;2.25;;
80423;SDS011;69765;47.668;19.326;2023-05-10T15:42:15;4.80;;;2.28;;
80423;SDS011;69765;47.668;19.326;2023-05-10T15:45:17;6.32;;;2.63;;
80423;SDS011;69765;47.668;19.326;2023-05-10T15:48:20;3.30;;;2.17;;
80423;SDS011;69765;47.668;19.326;2023-05-10T15:51:23;4.20;;;2.33;;
80423;SDS011;69765;47.668;19.326;2023-05-10T15:54:25;4.35;;;2.20;;
80423;SDS011;69765;47.668;19.326;2023-05-10T15:57:27;3.53;;;2.03;;
80423;SDS011;69765;47.668;19.326;2023-05-10T16:00:30;3.88;;;2.15;;
80423;SDS011;69765;47.668;19.326;2023-05-10T16:03:32;2.92;;;1.75;;
80423;SDS011;69765;47.668;19.326;2023-05-10T16:06:38;3.45;;;2.20;;
80423;SDS011;69765;47.668;19.326;2023-05-10T16:09:40;4.35;;;2.00;;
80423;SDS011;69765;47.668;19.326;2023-05-10T16:12:43;2.75;;;1.73;;
80423;SDS011;69765;47.668;19.326;2023-05-10T16:15:45;2.90;;;1.75;;
80423;SDS011;69765;47.668;19.326;2023-05-10T16:18:47;4.03;;;1.83;;
80423;SDS011;69765;47.668;19.326;2023-05-10T16:21:50;3.75;;;1.80;;
80423;SDS011;69765;47.668;19.326;2023-05-10T16:24:52;2.92;;;1.88;;
80423;SDS011;69765;47.668;19.326;2023-05-10T16:27:55;3.15;;;1.42;;
80423;SDS011;69765;47.668;19.326;2023-05-10T16:30:57;3.05;;;1.67;;
80423;SDS011;69765;47.668;19.326;2023-05-10T16:33:59;2.90;;;1.70;;
80423;SDS011;69765;47.668;19.326;2023-05-10T16:37:02;4.25;;;2.13;;
80423;SDS011;69765;47.668;19.326;2023-05-10T16:40:05;2.72;;;1.73;;
80423;SDS011;69765;47.668;19.326;2023-05-10T16:43:09;4.25;;;2.05;;
80423;SDS011;69765;47.668;19.326;2023-05-10T16:46:12;4.13;;;1.75;;
80423;SDS011;69765;47.668;19.326;2023-05-10T16:49:14;2.40;;;1.42;;
80423;SDS011;69765;47.668;19.326;2023-05-10T16:52:17;4.47;;;1.75;;
80423;SDS011;69765;47.668;19.326;2023-05-10T16:55:19;4.35;;;1.92;;
80423;SDS011;69765;47.668;19.326;2023-05-10T16:58:23;2.50;;;1.63;;
80423;SDS011;69765;47.668;19.326;2023-05-10T17:01:26;4.35;;;1.75;;
80423;SDS011;69765;47.668;19.326;2023-05-10T17:04:28;4.35;;;1.80;;
80423;SDS011;69765;47.668;19.326;2023-05-10T17:07:31;2.63;;;1.65;;
80423;SDS011;69765;47.668;19.326;2023-05-10T17:10:33;3.50;;;1.90;;
80423;SDS011;69765;47.668;19.326;2023-05-10T17:13:36;3.40;;;2.10;;
80423;SDS011;69765;47.668;19.326;2023-05-10T17:16:40;3.83;;;2.00;;
80423;SDS011;69765;47.668;19.326;2023-05-10T17:19:45;2.72;;;1.80;;
80423;SDS011;69765;47.668;19.326;2023-05-10T17:22:48;4.13;;;1.88;;
80423;SDS011;69765;47.668;19.326;2023-05-10T17:25:50;3.88;;;1.90;;
80423;SDS011;69765;47.668;19.326;2023-05-10T17:28:53;4.60;;;2.17;;
80423;SDS011;69765;47.668;19.326;2023-05-10T17:31:56;5.57;;;2.78;;
80423;SDS011;69765;47.668;19.326;2023-05-10T17:34:59;6.15;;;3.00;;
80423;SDS011;69765;47.668;19.326;2023-05-10T17:38:02;6.55;;;3.03;;
80423;SDS011;69765;47.668;19.326;2023-05-10T17:41:04;5.05;;;3.08;;
80423;SDS011;69765;47.668;19.326;2023-05-10T17:44:06;6.22;;;3.45;;
80423;SDS011;69765;47.668;19.326;2023-05-10T17:47:09;4.25;;;2.65;;
80423;SDS011;69765;47.668;19.326;2023-05-10T17:50:11;5.05;;;2.30;;
80423;SDS011;69765;47.668;19.326;2023-05-10T17:53:14;5.00;;;2.83;;
80423;SDS011;69765;47.668;19.326;2023-05-10T17:56:16;4.15;;;2.63;;
80423;SDS011;69765;47.668;19.326;2023-05-10T17:59:19;5.38;;;2.53;;
80423;SDS011;69765;47.668;19.326;2023-05-10T18:02:22;5.45;;;2.50;;
80423;SDS011;69765;47.668;19.326;2023-05-10T18:05:24;4.07;;;2.65;;
80423;SDS011;69765;47.668;19.326;2023-05-10T18:08:27;4.15;;;2.30;;
80423;SDS011;69765;47.668;19.326;2023-05-10T18:11:33;2.70;;;2.17;;
80423;SDS011;69765;47.668;19.326;2023-05-10T18:14:36;2.97;;;2.03;;
80423;SDS011;69765;47.668;19.326;2023-05-10T18:17:42;3.50;;;2.50;;
80423;SDS011;69765;47.668;19.326;2023-05-10T18:20:44;4.00;;;2.47;;
80423;SDS011;69765;47.668;19.326;2023-05-10T18:23:47;4.72;;;2.70;;
80423;SDS011;69765;47.668;19.326;2023-05-10T18:26:50;4.28;;;2.83;;
80423;SDS011;69765;47.668;19.326;2023-05-10T18:29:53;6.30;;;2.40;;
80423;SDS011;69765;47.668;19.326;2023-05-10T18:32:55;3.88;;;2.58;;
80423;SDS011;69765;47.668;19.326;2023-05-10T18:35:59;4.65;;;2.70;;
80423;SDS011;69765;47.668;19.326;2023-05-10T18:39:01;5.10;;;2.78;;
80423;SDS011;69765;47.668;19.326;2023-05-10T18:42:04;5.07;;;3.13;;
80423;SDS011;69765;47.668;19.326;2023-05-10T18:45:09;4.22;;;3.63;;
80423;SDS011;69765;47.668;19.326;2023-05-10T18:48:12;4.97;;;3.30;;
80423;SDS011;69765;47.668;19.326;2023-05-10T18:51:14;5.65;;;3.35;;
80423;SDS011;69765;47.668;19.326;2023-05-10T18:54:17;6.82;;;3.75;;